createdAt,value
2023-05-02T00:00:59.153Z,11.40
2023-05-02T00:03:26.426Z,11.33
2023-05-02T00:05:53.649Z,11.28
2023-05-02T00:08:20.544Z,11.31
2023-05-02T00:10:47.625Z,11.34
2023-05-02T00:13:14.552Z,11.26
2023-05-02T00:16:00.203Z,11.31
2023-05-02T00:18:27.507Z,11.33
2023-05-02T00:20:56.481Z,11.32
2023-05-02T00:23:24.127Z,11.31
2023-05-02T00:25:51.086Z,11.27
2023-05-02T00:28:18.737Z,11.30
2023-05-02T00:30:47.210Z,11.32
2023-05-02T00:33:15.323Z,11.30
2023-05-02T00:35:42.586Z,11.35
2023-05-02T00:38:09.742Z,11.32
2023-05-02T00:40:47.937Z,11.38
2023-05-02T00:43:16.311Z,11.37
2023-05-02T00:45:44.711Z,11.36
2023-05-02T00:48:12.510Z,11.38
2023-05-02T00:50:42.258Z,11.40
2023-05-02T00:53:10.980Z,11.40
2023-05-02T00:55:38.516Z,11.47
2023-05-02T00:58:11.780Z,11.55
2023-05-02T01:01:10.711Z,11.58
2023-05-02T01:04:13.097Z,11.48
2023-05-02T01:06:59.555Z,11.50
2023-05-02T01:09:34.184Z,11.49
2023-05-02T01:12:24.273Z,11.46
2023-05-02T01:14:57.383Z,11.52
2023-05-02T01:17:30.587Z,11.50
2023-05-02T01:20:00.228Z,11.49
2023-05-02T01:22:30.209Z,11.50
2023-05-02T01:25:35.111Z,11.49
2023-05-02T01:28:17.213Z,11.45
2023-05-02T01:30:47.314Z,11.40
2023-05-02T01:33:17.589Z,11.35
2023-05-02T01:35:49.799Z,11.34
2023-05-02T01:38:19.135Z,11.42
2023-05-02T01:40:47.691Z,11.39
2023-05-02T01:43:16.848Z,11.44
2023-05-02T01:45:47.540Z,11.36
2023-05-02T01:48:16.329Z,11.42
2023-05-02T01:50:45.859Z,11.48
2023-05-02T01:53:14.717Z,11.43
2023-05-02T01:55:45.619Z,11.33
2023-05-02T01:58:15.305Z,11.32
2023-05-02T02:00:45.429Z,11.39
2023-05-02T02:03:14.526Z,11.37
2023-05-02T02:05:42.592Z,11.40
2023-05-02T02:08:09.731Z,11.32
2023-05-02T02:10:43.265Z,11.29
2023-05-02T02:13:30.599Z,11.29
2023-05-02T02:16:02.132Z,11.22
2023-05-02T02:18:32.572Z,11.17
2023-05-02T02:21:01.132Z,11.15
2023-05-02T02:23:30.271Z,11.01
2023-05-02T02:25:57.595Z,11.10
2023-05-02T02:28:24.541Z,10.98
2023-05-02T02:30:51.660Z,10.97
2023-05-02T02:33:19.739Z,10.92
2023-05-02T02:36:07.136Z,10.91
2023-05-02T02:38:50.543Z,10.87
2023-05-02T02:41:28.254Z,10.84
2023-05-02T02:44:13.863Z,10.77
2023-05-02T02:46:44.047Z,10.80
2023-05-02T02:49:29.330Z,10.78
2023-05-02T02:52:32.773Z,10.82
2023-05-02T02:55:09.479Z,10.81
2023-05-02T02:57:55.465Z,10.63
2023-05-02T03:00:25.980Z,10.52
2023-05-02T03:02:54.618Z,10.53
2023-05-02T03:05:23.041Z,10.40
2023-05-02T03:07:51.225Z,10.42
2023-05-02T03:10:19.462Z,10.54
2023-05-02T03:12:47.593Z,10.50
2023-05-02T03:15:49.984Z,10.58
2023-05-02T03:18:19.761Z,10.61
2023-05-02T03:20:46.933Z,10.52
2023-05-02T03:23:14.294Z,10.43
2023-05-02T03:25:41.883Z,10.47
2023-05-02T03:28:12.374Z,10.54
2023-05-02T03:30:41.999Z,10.56
2023-05-02T03:33:09.230Z,10.54
2023-05-02T03:35:37.415Z,10.53
2023-05-02T03:38:04.288Z,10.54
2023-05-02T03:40:31.345Z,10.39
2023-05-02T03:42:58.686Z,10.53
2023-05-02T03:45:31.690Z,10.60
2023-05-02T03:47:59.728Z,10.67
2023-05-02T03:50:27.895Z,10.71
2023-05-02T03:52:56.138Z,10.82
2023-05-02T03:55:32.262Z,10.94
2023-05-02T03:57:59.880Z,10.98
2023-05-02T04:00:26.795Z,11.10
2023-05-02T04:03:03.581Z,11.14
2023-05-02T04:05:33.039Z,11.26
2023-05-02T04:08:01.273Z,11.21
2023-05-02T04:10:28.183Z,11.36
2023-05-02T04:12:58.855Z,11.33
2023-05-02T04:15:26.368Z,11.53
2023-05-02T04:17:54.418Z,11.58
2023-05-02T04:20:21.626Z,11.62
2023-05-02T04:22:51.306Z,11.71
2023-05-02T04:25:18.542Z,11.70
2023-05-02T04:27:47.326Z,11.67
2023-05-02T04:30:18.262Z,11.53
2023-05-02T04:32:53.986Z,11.95
2023-05-02T04:35:21.610Z,11.86
2023-05-02T04:37:49.124Z,12.09
2023-05-02T04:40:17.643Z,12.29
2023-05-02T04:42:47.486Z,12.30
2023-05-02T04:45:17.857Z,12.34
2023-05-02T04:47:46.049Z,12.47
2023-05-02T04:50:13.050Z,12.46
2023-05-02T04:52:41.414Z,12.34
2023-05-02T04:55:09.218Z,12.41
2023-05-02T04:57:37.289Z,12.62
2023-05-02T05:00:05.648Z,12.60
2023-05-02T05:02:35.328Z,12.76
2023-05-02T05:05:03.286Z,12.90
2023-05-02T05:07:31.492Z,12.62
2023-05-02T05:09:59.309Z,12.64
2023-05-02T05:12:30.982Z,12.71
2023-05-02T05:14:58.497Z,12.76
2023-05-02T05:17:27.571Z,12.77
2023-05-02T05:19:54.852Z,12.83
2023-05-02T05:22:22.279Z,12.89
2023-05-02T05:24:53.968Z,12.90
2023-05-02T05:27:22.886Z,12.93
2023-05-02T05:29:50.190Z,12.96
2023-05-02T05:32:17.776Z,13.01
2023-05-02T05:34:45.572Z,13.06
2023-05-02T05:37:13.568Z,13.25
2023-05-02T05:39:41.634Z,13.24
2023-05-02T05:42:09.985Z,13.24
2023-05-02T05:44:39.733Z,13.14
2023-05-02T05:47:06.678Z,13.28
2023-05-02T05:49:38.496Z,13.37
2023-05-02T05:52:08.293Z,13.41
2023-05-02T05:54:36.114Z,13.53
2023-05-02T05:57:03.691Z,13.69
2023-05-02T05:59:30.978Z,13.62
2023-05-02T06:01:59.506Z,13.69
2023-05-02T06:04:27.062Z,13.66
2023-05-02T06:06:54.773Z,13.68
2023-05-02T06:09:22.303Z,13.72
2023-05-02T06:11:49.653Z,13.72
2023-05-02T06:14:16.874Z,13.87
2023-05-02T06:16:46.090Z,13.96
2023-05-02T06:19:13.366Z,14.06
2023-05-02T06:21:40.389Z,14.16
2023-05-02T06:24:07.310Z,14.22
2023-05-02T06:26:34.739Z,14.13
2023-05-02T06:29:02.622Z,14.17
2023-05-02T06:31:29.801Z,14.32
2023-05-02T06:33:56.962Z,14.39
2023-05-02T06:36:24.063Z,14.55
2023-05-02T06:38:50.945Z,14.63
2023-05-02T06:41:18.449Z,14.76
2023-05-02T06:43:45.447Z,14.92
2023-05-02T06:46:12.633Z,14.91
2023-05-02T06:48:39.478Z,14.85
2023-05-02T06:51:06.592Z,14.84
2023-05-02T06:53:33.586Z,14.92
2023-05-02T06:56:00.979Z,14.91
2023-05-02T06:58:28.009Z,15.13
2023-05-02T07:00:54.896Z,15.24
2023-05-02T07:03:22.152Z,15.38
2023-05-02T07:05:49.219Z,15.16
2023-05-02T07:08:16.252Z,15.38
2023-05-02T07:10:43.264Z,15.49
2023-05-02T07:13:10.221Z,15.39
2023-05-02T07:15:37.092Z,15.74
2023-05-02T07:18:04.282Z,15.75
2023-05-02T07:20:31.265Z,16.02
2023-05-02T07:22:58.481Z,16.06
2023-05-02T07:25:25.754Z,16.07
2023-05-02T07:27:52.880Z,16.11
2023-05-02T07:30:19.758Z,16.34
2023-05-02T07:32:46.770Z,16.25
2023-05-02T07:35:13.757Z,16.25
2023-05-02T07:37:40.818Z,16.33
2023-05-02T07:40:09.431Z,16.08
2023-05-02T07:42:36.735Z,16.23
2023-05-02T07:45:04.193Z,16.36
2023-05-02T07:47:34.866Z,16.57
2023-05-02T07:50:04.619Z,16.63
2023-05-02T07:52:33.271Z,16.75
2023-05-02T07:55:00.454Z,16.81
2023-05-02T07:57:27.670Z,16.92
2023-05-02T07:59:57.268Z,16.95
2023-05-02T08:02:26.167Z,17.10
2023-05-02T08:04:54.496Z,17.16
2023-05-02T08:07:21.820Z,17.18
2023-05-02T08:09:48.768Z,17.37
2023-05-02T08:12:16.084Z,17.37
2023-05-02T08:14:43.019Z,17.40
2023-05-02T08:17:10.419Z,17.51
2023-05-02T08:19:37.266Z,17.81
2023-05-02T08:22:04.252Z,17.78
2023-05-02T08:24:31.396Z,17.95
2023-05-02T08:26:58.463Z,17.81
2023-05-02T08:29:25.544Z,18.08
2023-05-02T08:31:52.762Z,18.13
2023-05-02T08:34:19.728Z,18.26
2023-05-02T08:36:47.419Z,18.19
2023-05-02T08:39:14.480Z,18.36
2023-05-02T08:41:41.751Z,18.20
2023-05-02T08:44:09.040Z,18.09
2023-05-02T08:46:36.787Z,18.52
2023-05-02T08:49:03.817Z,18.77
2023-05-02T08:51:32.813Z,19.01
2023-05-02T08:54:03.520Z,19.13
2023-05-02T08:56:30.837Z,19.17
2023-05-02T08:58:58.941Z,19.16
2023-05-02T09:01:33.579Z,19.08
2023-05-02T09:04:00.857Z,19.20
2023-05-02T09:06:29.323Z,19.35
2023-05-02T09:09:00.369Z,19.20
2023-05-02T09:11:27.730Z,19.33
2023-05-02T09:13:54.919Z,19.31
2023-05-02T09:16:27.288Z,18.94
2023-05-02T09:18:57.634Z,18.69
2023-05-02T09:21:27.388Z,19.05
2023-05-02T09:24:00.863Z,19.26
2023-05-02T09:26:32.458Z,18.85
2023-05-02T09:29:02.244Z,18.94
2023-05-02T09:31:54.045Z,19.39
2023-05-02T09:34:21.337Z,19.33
2023-05-02T09:36:51.983Z,19.42
2023-05-02T09:39:30.268Z,19.36
2023-05-02T09:41:58.749Z,19.76
2023-05-02T09:44:27.803Z,19.76
2023-05-02T09:46:57.505Z,19.95
2023-05-02T09:49:44.964Z,20.20
2023-05-02T09:52:17.997Z,20.53
2023-05-02T09:54:46.750Z,20.89
2023-05-02T09:57:14.128Z,20.21
2023-05-02T09:59:41.629Z,20.17
2023-05-02T10:02:11.601Z,20.17
2023-05-02T10:04:40.020Z,20.16
2023-05-02T10:07:10.421Z,20.53
2023-05-02T10:09:43.173Z,21.07
2023-05-02T10:12:10.451Z,21.14
2023-05-02T10:14:44.237Z,21.06
2023-05-02T10:17:21.525Z,20.55
2023-05-02T10:19:56.943Z,20.70
2023-05-02T10:22:25.280Z,20.86
2023-05-02T10:24:53.425Z,20.74
2023-05-02T10:27:21.044Z,20.74
2023-05-02T10:29:48.654Z,20.77
2023-05-02T10:32:18.470Z,20.50
2023-05-02T10:34:47.673Z,20.51
2023-05-02T10:37:16.339Z,20.42
2023-05-02T10:39:43.687Z,20.85
2023-05-02T10:42:11.133Z,20.81
2023-05-02T10:44:41.537Z,20.86
2023-05-02T10:47:27.343Z,20.65
2023-05-02T10:50:00.780Z,20.61
2023-05-02T10:52:38.677Z,20.54
2023-05-02T10:55:16.414Z,20.50
2023-05-02T10:58:00.046Z,20.78
2023-05-02T11:00:32.618Z,21.00
2023-05-02T11:03:00.831Z,21.29
2023-05-02T11:05:28.421Z,21.17
2023-05-02T11:08:20.217Z,21.31
2023-05-02T11:10:48.226Z,21.30
2023-05-02T11:13:15.674Z,21.34
2023-05-02T11:15:43.778Z,21.31
2023-05-02T11:18:12.928Z,21.08
2023-05-02T11:20:45.412Z,21.19
2023-05-02T11:23:36.920Z,21.43
2023-05-02T11:26:22.295Z,21.63
2023-05-02T11:28:49.513Z,21.47
2023-05-02T11:31:36.790Z,21.43
2023-05-02T11:34:04.623Z,21.30
2023-05-02T11:36:33.715Z,21.54
2023-05-02T11:39:03.543Z,21.14
2023-05-02T11:41:40.687Z,21.15
2023-05-02T11:44:07.775Z,21.63
2023-05-02T11:46:39.568Z,21.91
2023-05-02T11:49:14.785Z,21.69
2023-05-02T11:51:42.582Z,21.89
2023-05-02T11:54:10.326Z,21.85
2023-05-02T11:56:37.534Z,21.85
2023-05-02T11:59:05.037Z,21.77
2023-05-02T12:01:32.387Z,21.91
2023-05-02T12:04:07.739Z,21.70
2023-05-02T12:06:35.570Z,21.77
2023-05-02T12:09:17.157Z,21.31
2023-05-02T12:11:45.205Z,21.20
2023-05-02T12:14:12.760Z,21.47
2023-05-02T12:16:42.168Z,21.45
2023-05-02T12:19:09.211Z,21.50
2023-05-02T12:21:36.298Z,21.67
2023-05-02T12:24:03.738Z,21.33
2023-05-02T12:26:33.090Z,21.48
2023-05-02T12:29:02.134Z,21.69
2023-05-02T12:31:31.479Z,21.52
2023-05-02T12:34:00.358Z,21.52
2023-05-02T12:36:30.912Z,21.79
2023-05-02T12:38:59.830Z,21.74
2023-05-02T12:41:34.520Z,21.63
2023-05-02T12:44:02.224Z,21.52
2023-05-02T12:46:31.371Z,21.84
2023-05-02T12:49:05.754Z,21.97
2023-05-02T12:51:34.360Z,22.10
2023-05-02T12:54:01.453Z,22.21
2023-05-02T12:56:32.643Z,22.23
2023-05-02T12:59:01.655Z,22.04
2023-05-02T13:01:30.008Z,21.73
2023-05-02T13:03:57.076Z,21.53
2023-05-02T13:06:24.331Z,21.87
2023-05-02T13:08:51.246Z,21.99
2023-05-02T13:11:19.458Z,21.83
2023-05-02T13:13:46.670Z,21.38
2023-05-02T13:16:13.863Z,21.04
2023-05-02T13:18:41.207Z,21.21
2023-05-02T13:21:08.688Z,20.94
2023-05-02T13:23:36.645Z,20.80
2023-05-02T13:26:04.279Z,20.95
2023-05-02T13:28:33.348Z,21.38
2023-05-02T13:31:00.756Z,21.61
2023-05-02T13:33:27.803Z,21.77
2023-05-02T13:35:56.492Z,21.26
2023-05-02T13:38:23.625Z,21.31
2023-05-02T13:40:50.860Z,21.37
2023-05-02T13:43:17.936Z,21.28
2023-05-02T13:45:47.393Z,21.23
2023-05-02T13:48:15.641Z,21.58
2023-05-02T13:50:42.469Z,21.54
2023-05-02T13:53:09.659Z,21.48
2023-05-02T13:55:38.545Z,21.24
2023-05-02T13:58:06.335Z,21.32
2023-05-02T14:00:33.366Z,21.24
2023-05-02T14:03:00.749Z,21.28
2023-05-02T14:05:27.812Z,21.34
2023-05-02T14:07:54.963Z,21.39
2023-05-02T14:10:21.909Z,21.38
2023-05-02T14:12:49.400Z,21.36
2023-05-02T14:15:16.313Z,21.50
2023-05-02T14:17:43.350Z,21.17
2023-05-02T14:20:10.982Z,20.93
2023-05-02T14:22:38.282Z,21.12
2023-05-02T14:25:06.013Z,21.24
2023-05-02T14:27:33.390Z,21.11
2023-05-02T14:30:00.920Z,20.90
2023-05-02T14:32:31.095Z,20.97
2023-05-02T14:34:58.163Z,20.98
2023-05-02T14:37:25.310Z,21.10
2023-05-02T14:39:56.069Z,21.14
2023-05-02T14:42:23.424Z,20.97
2023-05-02T14:44:50.327Z,20.87
2023-05-02T14:47:18.165Z,20.83
2023-05-02T14:49:45.121Z,20.74
2023-05-02T14:52:12.280Z,20.97
2023-05-02T14:54:39.226Z,20.96
2023-05-02T14:57:07.099Z,21.12
2023-05-02T14:59:36.029Z,20.98
2023-05-02T15:02:03.320Z,20.85
2023-05-02T15:04:31.110Z,20.76
2023-05-02T15:06:59.771Z,20.93
2023-05-02T15:09:27.194Z,20.97
2023-05-02T15:11:54.238Z,21.03
2023-05-02T15:14:21.483Z,20.91
2023-05-02T15:16:48.833Z,21.04
2023-05-02T15:19:15.683Z,20.85
2023-05-02T15:21:42.639Z,20.55
2023-05-02T15:24:10.705Z,20.76
2023-05-02T15:26:40.382Z,20.52
2023-05-02T15:29:07.700Z,20.52
2023-05-02T15:31:34.904Z,20.71
2023-05-02T15:34:02.093Z,20.51
2023-05-02T15:36:30.503Z,20.72
2023-05-02T15:38:57.691Z,21.09
2023-05-02T15:41:27.632Z,22.00
2023-05-02T15:43:54.971Z,22.25
2023-05-02T15:46:22.208Z,21.94
2023-05-02T15:48:49.830Z,21.67
2023-05-02T15:51:17.350Z,21.63
2023-05-02T15:53:47.897Z,21.29
2023-05-02T15:56:14.796Z,22.58
2023-05-02T15:58:41.951Z,23.30
2023-05-02T16:01:09.657Z,23.60
2023-05-02T16:03:37.214Z,24.01
2023-05-02T16:06:07.644Z,24.60
2023-05-02T16:08:35.162Z,24.69
2023-05-02T16:11:02.146Z,25.55
2023-05-02T16:13:30.320Z,25.77
2023-05-02T16:15:57.570Z,25.67
2023-05-02T16:18:28.272Z,24.60
2023-05-02T16:20:57.237Z,25.32
2023-05-02T16:23:25.859Z,24.93
2023-05-02T16:26:00.762Z,24.35
2023-05-02T16:28:28.379Z,24.57
2023-05-02T16:30:55.672Z,24.51
2023-05-02T16:33:23.103Z,24.68
2023-05-02T16:35:59.617Z,23.94
2023-05-02T16:38:26.812Z,23.57
2023-05-02T16:40:53.758Z,23.33
2023-05-02T16:43:21.107Z,23.49
2023-05-02T16:45:48.097Z,22.95
2023-05-02T16:48:15.671Z,22.32
2023-05-02T16:50:42.869Z,20.76
2023-05-02T16:53:09.984Z,20.74
2023-05-02T16:55:36.957Z,20.36
2023-05-02T16:58:04.170Z,19.84
2023-05-02T17:00:31.155Z,19.79
2023-05-02T17:02:58.580Z,19.36
2023-05-02T17:05:26.173Z,19.32
2023-05-02T17:07:54.598Z,19.13
2023-05-02T17:10:21.574Z,18.99
2023-05-02T17:12:48.671Z,18.60
2023-05-02T17:15:16.052Z,18.26
2023-05-02T17:17:43.789Z,18.00
2023-05-02T17:20:11.701Z,18.03
2023-05-02T17:22:39.280Z,17.84
2023-05-02T17:25:06.961Z,17.69
2023-05-02T17:27:34.230Z,17.69
2023-05-02T17:30:01.457Z,17.18
2023-05-02T17:32:34.911Z,17.19
2023-05-02T17:35:02.166Z,17.30
2023-05-02T17:37:32.996Z,17.28
2023-05-02T17:40:02.271Z,17.11
2023-05-02T17:42:31.552Z,17.10
2023-05-02T17:44:58.595Z,17.16
2023-05-02T17:47:25.763Z,17.05
2023-05-02T17:49:53.912Z,16.92
2023-05-02T17:52:21.583Z,16.88
2023-05-02T17:54:48.649Z,16.83
2023-05-02T17:57:16.142Z,16.75
2023-05-02T17:59:43.377Z,16.72
2023-05-02T18:02:10.572Z,16.66
2023-05-02T18:04:37.771Z,16.59
2023-05-02T18:07:06.182Z,16.59
2023-05-02T18:09:33.835Z,16.51
2023-05-02T18:12:03.732Z,16.42
2023-05-02T18:14:30.709Z,16.38
2023-05-02T18:16:57.781Z,16.33
2023-05-02T18:19:25.010Z,16.22
2023-05-02T18:21:52.541Z,16.25
2023-05-02T18:24:19.573Z,16.22
2023-05-02T18:26:48.595Z,16.21
2023-05-02T18:29:15.812Z,16.20
2023-05-02T18:31:42.950Z,16.08
2023-05-02T18:34:10.119Z,15.97
2023-05-02T18:36:37.064Z,15.90
2023-05-02T18:39:04.047Z,15.91
2023-05-02T18:41:31.001Z,15.81
2023-05-02T18:43:59.384Z,15.74
2023-05-02T18:46:27.900Z,15.71
2023-05-02T18:48:54.881Z,15.69
2023-05-02T18:51:22.635Z,15.57
2023-05-02T18:53:49.769Z,15.63
2023-05-02T18:56:17.250Z,15.66
2023-05-02T18:58:44.191Z,15.56
2023-05-02T19:01:13.200Z,15.42
2023-05-02T19:03:40.392Z,15.49
2023-05-02T19:06:07.544Z,15.38
2023-05-02T19:08:34.426Z,15.36
2023-05-02T19:11:01.644Z,15.36
2023-05-02T19:13:28.637Z,15.26
2023-05-02T19:15:55.739Z,15.29
2023-05-02T19:18:23.247Z,15.34
2023-05-02T19:20:50.695Z,15.28
2023-05-02T19:23:20.544Z,15.28
2023-05-02T19:25:47.999Z,15.36
2023-05-02T19:28:16.864Z,15.33
2023-05-02T19:30:44.780Z,15.21
2023-05-02T19:33:11.947Z,15.18
2023-05-02T19:35:39.468Z,15.17
2023-05-02T19:38:06.530Z,15.14
2023-05-02T19:40:33.784Z,15.04
2023-05-02T19:43:00.905Z,15.06
2023-05-02T19:45:28.182Z,14.98
2023-05-02T19:47:55.114Z,15.06
2023-05-02T19:50:22.218Z,14.99
2023-05-02T19:52:50.312Z,14.90
2023-05-02T19:55:18.524Z,14.85
2023-05-02T19:57:45.757Z,14.90
2023-05-02T20:00:14.144Z,15.07
2023-05-02T20:02:41.758Z,15.04
2023-05-02T20:05:09.106Z,15.02
2023-05-02T20:07:36.281Z,15.04
2023-05-02T20:10:03.879Z,15.01
2023-05-02T20:12:31.304Z,14.94
2023-05-02T20:14:58.225Z,14.89
2023-05-02T20:17:25.734Z,14.92
2023-05-02T20:19:52.700Z,14.93
2023-05-02T20:22:20.042Z,14.95
2023-05-02T20:24:47.014Z,14.83
2023-05-02T20:27:14.014Z,14.80
2023-05-02T20:29:41.101Z,14.82
2023-05-02T20:32:08.432Z,14.72
2023-05-02T20:34:35.702Z,14.71
2023-05-02T20:37:06.392Z,14.62
2023-05-02T20:39:33.367Z,14.58
2023-05-02T20:42:00.281Z,14.49
2023-05-02T20:44:28.456Z,14.52
2023-05-02T20:46:55.549Z,14.46
2023-05-02T20:49:22.533Z,14.46
2023-05-02T20:51:50.289Z,14.52
2023-05-02T20:54:18.609Z,14.46
2023-05-02T20:56:45.494Z,14.47
2023-05-02T20:59:12.701Z,14.39
2023-05-02T21:01:39.756Z,14.12
2023-05-02T21:04:06.893Z,14.43
2023-05-02T21:06:34.069Z,14.35
2023-05-02T21:09:02.225Z,14.33
2023-05-02T21:11:29.412Z,14.43
2023-05-02T21:13:56.554Z,14.43
2023-05-02T21:16:23.563Z,14.39
2023-05-02T21:18:50.642Z,14.35
2023-05-02T21:21:17.687Z,14.18
2023-05-02T21:23:44.984Z,14.20
2023-05-02T21:26:11.872Z,14.22
2023-05-02T21:28:39.266Z,14.26
2023-05-02T21:31:07.196Z,14.19
2023-05-02T21:33:34.539Z,14.07
2023-05-02T21:36:01.503Z,13.98
2023-05-02T21:38:29.446Z,14.05
2023-05-02T21:40:56.370Z,13.99
2023-05-02T21:43:23.547Z,13.86
2023-05-02T21:45:50.617Z,13.82
2023-05-02T21:48:17.918Z,13.91
2023-05-02T21:50:45.210Z,13.77
2023-05-02T21:53:13.468Z,13.73
2023-05-02T21:55:41.157Z,13.75
2023-05-02T21:58:10.709Z,13.73
2023-05-02T22:00:38.505Z,13.70
2023-05-02T22:03:08.399Z,13.67
2023-05-02T22:05:35.997Z,13.63
2023-05-02T22:08:03.049Z,13.61
2023-05-02T22:10:30.216Z,13.73
2023-05-02T22:12:57.271Z,13.63
2023-05-02T22:15:24.477Z,13.66
2023-05-02T22:17:52.203Z,13.66
2023-05-02T22:20:19.197Z,13.59
2023-05-02T22:22:46.278Z,13.68
2023-05-02T22:25:13.579Z,13.62
2023-05-02T22:27:40.941Z,13.59
2023-05-02T22:30:09.389Z,13.80
2023-05-02T22:32:36.737Z,13.75
2023-05-02T22:35:06.958Z,13.79
2023-05-02T22:37:34.013Z,13.77
2023-05-02T22:40:01.487Z,13.86
2023-05-02T22:42:30.879Z,13.79
2023-05-02T22:44:57.745Z,13.79
2023-05-02T22:47:25.169Z,13.86
2023-05-02T22:49:52.717Z,13.69
2023-05-02T22:52:20.792Z,13.69
2023-05-02T22:54:48.078Z,13.76
2023-05-02T22:57:14.957Z,13.60
2023-05-02T22:59:42.008Z,13.52
2023-05-02T23:02:11.753Z,13.57
2023-05-02T23:04:38.791Z,13.52
2023-05-02T23:07:06.255Z,13.55
2023-05-02T23:09:33.272Z,13.64
2023-05-02T23:12:00.318Z,13.62
2023-05-02T23:14:27.393Z,13.51
2023-05-02T23:16:54.480Z,13.60
2023-05-02T23:19:21.448Z,13.52
2023-05-02T23:21:48.313Z,13.51
2023-05-02T23:24:15.503Z,13.51
2023-05-02T23:26:42.389Z,13.56
2023-05-02T23:29:09.490Z,13.49
2023-05-02T23:31:36.609Z,13.58
2023-05-02T23:34:03.900Z,13.38
2023-05-02T23:36:32.462Z,13.45
2023-05-02T23:39:01.999Z,13.23
2023-05-02T23:41:30.017Z,13.33
2023-05-02T23:43:57.142Z,13.32
2023-05-02T23:46:25.137Z,13.26
2023-05-02T23:48:52.948Z,13.29
2023-05-02T23:51:19.885Z,13.14
2023-05-02T23:53:47.057Z,13.00
2023-05-02T23:56:13.960Z,13.09
2023-05-02T23:58:41.015Z,13.06
